createdAt,value
2023-01-11T00:00:09.131Z,4.05
2023-01-11T00:02:46.209Z,3.99
2023-01-11T00:04:58.338Z,3.95
2023-01-11T00:07:10.094Z,3.89
2023-01-11T00:09:22.503Z,3.85
2023-01-11T00:11:34.291Z,3.82
2023-01-11T00:13:46.393Z,3.80
2023-01-11T00:15:58.165Z,3.79
2023-01-11T00:18:11.403Z,3.78
2023-01-11T00:20:23.888Z,3.79
2023-01-11T00:22:35.800Z,3.82
2023-01-11T00:24:47.386Z,3.83
2023-01-11T00:26:59.072Z,3.85
2023-01-11T00:29:10.865Z,3.83
2023-01-11T00:31:22.515Z,3.85
2023-01-11T00:33:34.959Z,3.86
2023-01-11T00:35:46.951Z,3.87
2023-01-11T00:37:58.841Z,3.88
2023-01-11T00:40:11.250Z,3.90
2023-01-11T00:42:42.293Z,3.91
2023-01-11T00:45:13.028Z,3.92
2023-01-11T00:47:44.062Z,3.94
2023-01-11T00:49:55.957Z,3.95
2023-01-11T00:52:11.109Z,3.95
2023-01-11T00:54:23.104Z,3.94
2023-01-11T00:56:36.035Z,3.93
2023-01-11T00:58:48.131Z,3.93
2023-01-11T01:01:06.466Z,3.93
2023-01-11T01:03:18.170Z,3.91
2023-01-11T01:05:30.262Z,3.91
2023-01-11T01:07:42.359Z,3.90
2023-01-11T01:09:54.370Z,3.87
2023-01-11T01:12:08.686Z,3.86
2023-01-11T01:14:28.781Z,3.86
2023-01-11T01:16:42.416Z,3.86
2023-01-11T01:18:57.297Z,3.86
2023-01-11T01:21:09.070Z,3.84
2023-01-11T01:23:20.759Z,3.81
2023-01-11T01:25:32.552Z,3.78
2023-01-11T01:27:45.058Z,3.73
2023-01-11T01:29:56.845Z,3.66
2023-01-11T01:32:08.947Z,3.60
2023-01-11T01:34:20.635Z,3.54
2023-01-11T01:36:33.761Z,3.49
2023-01-11T01:38:45.638Z,3.46
2023-01-11T01:40:57.469Z,3.42
2023-01-11T01:43:12.370Z,3.38
2023-01-11T01:45:27.731Z,3.33
2023-01-11T01:47:55.329Z,3.27
2023-01-11T01:50:13.467Z,3.22
2023-01-11T01:52:29.409Z,3.18
2023-01-11T01:54:47.229Z,3.11
2023-01-11T01:57:04.620Z,3.08
2023-01-11T01:59:20.186Z,3.05
2023-01-11T02:01:47.340Z,3.02
2023-01-11T02:03:59.851Z,2.98
2023-01-11T02:06:11.736Z,2.93
2023-01-11T02:08:34.995Z,2.88
2023-01-11T02:10:47.299Z,2.83
2023-01-11T02:13:05.855Z,2.77
2023-01-11T02:15:21.014Z,2.71
2023-01-11T02:17:33.009Z,2.68
2023-01-11T02:20:00.155Z,2.62
2023-01-11T02:23:01.101Z,2.54
2023-01-11T02:25:45.557Z,2.41
2023-01-11T02:28:17.884Z,2.32
2023-01-11T02:31:04.171Z,2.27
2023-01-11T02:33:23.147Z,2.20
2023-01-11T02:35:44.295Z,2.17
2023-01-11T02:38:09.191Z,2.13
2023-01-11T02:40:29.881Z,2.10
2023-01-11T02:43:12.235Z,2.08
2023-01-11T02:45:37.404Z,2.06
2023-01-11T02:48:28.721Z,2.07
2023-01-11T02:50:50.649Z,2.08
2023-01-11T02:53:08.173Z,2.09
2023-01-11T02:55:26.272Z,2.10
2023-01-11T02:57:40.252Z,2.08
2023-01-11T02:59:55.183Z,2.06
2023-01-11T03:02:06.984Z,2.03
2023-01-11T03:04:27.213Z,2.02
2023-01-11T03:06:39.221Z,2.03
2023-01-11T03:09:12.888Z,2.01
2023-01-11T03:12:06.765Z,2.00
2023-01-11T03:14:47.041Z,1.96
2023-01-11T03:17:13.558Z,1.95
2023-01-11T03:19:51.873Z,1.93
2023-01-11T03:22:07.959Z,1.89
2023-01-11T03:24:48.287Z,1.87
2023-01-11T03:27:20.822Z,1.85
2023-01-11T03:29:59.721Z,1.85
2023-01-11T03:32:25.132Z,1.85
2023-01-11T03:34:46.134Z,1.88
2023-01-11T03:37:12.978Z,1.92
2023-01-11T03:39:43.415Z,1.92
2023-01-11T03:42:00.038Z,1.92
2023-01-11T03:44:15.269Z,1.93
2023-01-11T03:46:31.377Z,1.93
2023-01-11T03:48:52.093Z,1.92
2023-01-11T03:51:08.466Z,1.88
2023-01-11T03:53:22.406Z,1.84
2023-01-11T03:55:39.818Z,1.83
2023-01-11T03:57:54.370Z,1.83
2023-01-11T04:00:08.913Z,1.83
2023-01-11T04:02:25.036Z,1.82
2023-01-11T04:04:37.363Z,1.79
2023-01-11T04:06:50.094Z,1.77
2023-01-11T04:09:01.800Z,1.74
2023-01-11T04:11:14.145Z,1.71
2023-01-11T04:13:26.341Z,1.68
2023-01-11T04:15:38.020Z,1.63
2023-01-11T04:17:49.708Z,1.55
2023-01-11T04:20:01.415Z,1.48
2023-01-11T04:22:13.186Z,1.42
2023-01-11T04:24:25.187Z,1.38
2023-01-11T04:26:37.592Z,1.36
2023-01-11T04:28:49.381Z,1.34
2023-01-11T04:31:01.062Z,1.33
2023-01-11T04:33:13.444Z,1.32
2023-01-11T04:35:26.084Z,1.31
2023-01-11T04:37:38.072Z,1.29
2023-01-11T04:39:49.973Z,1.28
2023-01-11T04:42:20.284Z,1.27
2023-01-11T04:44:32.286Z,1.26
2023-01-11T04:46:44.684Z,1.26
2023-01-11T04:48:56.576Z,1.27
2023-01-11T04:51:09.949Z,1.26
2023-01-11T04:53:22.000Z,1.24
2023-01-11T04:55:33.995Z,1.24
2023-01-11T04:57:46.917Z,1.24
2023-01-11T04:59:58.919Z,1.23
2023-01-11T05:02:10.608Z,1.24
2023-01-11T05:04:22.834Z,1.26
2023-01-11T05:06:34.718Z,1.27
2023-01-11T05:08:47.535Z,1.30
2023-01-11T05:11:02.152Z,1.31
2023-01-11T05:13:14.029Z,1.32
2023-01-11T05:15:25.836Z,1.32
2023-01-11T05:17:37.985Z,1.32
2023-01-11T05:19:49.832Z,1.32
2023-01-11T05:22:01.724Z,1.31
2023-01-11T05:24:15.769Z,1.30
2023-01-11T05:26:30.617Z,1.29
2023-01-11T05:28:42.518Z,1.28
2023-01-11T05:30:55.286Z,1.27
2023-01-11T05:33:07.220Z,1.27
2023-01-11T05:35:19.014Z,1.26
2023-01-11T05:37:31.011Z,1.26
2023-01-11T05:39:43.517Z,1.25
2023-01-11T05:41:55.620Z,1.25
2023-01-11T05:44:30.653Z,1.25
2023-01-11T05:46:44.358Z,1.24
2023-01-11T05:48:56.479Z,1.23
2023-01-11T05:51:09.321Z,1.22
2023-01-11T05:53:23.564Z,1.22
2023-01-11T05:55:35.432Z,1.22
2023-01-11T05:57:47.787Z,1.23
2023-01-11T05:59:59.700Z,1.25
2023-01-11T06:02:11.846Z,1.27
2023-01-11T06:04:23.922Z,1.29
2023-01-11T06:06:36.024Z,1.31
2023-01-11T06:08:48.662Z,1.33
2023-01-11T06:11:01.140Z,1.34
2023-01-11T06:13:28.213Z,1.35
2023-01-11T06:15:40.691Z,1.35
2023-01-11T06:17:52.686Z,1.36
2023-01-11T06:20:05.309Z,1.38
2023-01-11T06:22:17.084Z,1.39
2023-01-11T06:24:28.652Z,1.41
2023-01-11T06:26:40.671Z,1.43
2023-01-11T06:28:52.563Z,1.44
2023-01-11T06:31:05.627Z,1.45
2023-01-11T06:33:17.471Z,1.44
2023-01-11T06:35:29.305Z,1.43
2023-01-11T06:37:41.151Z,1.43
2023-01-11T06:39:53.244Z,1.42
2023-01-11T06:42:05.141Z,1.40
2023-01-11T06:44:16.930Z,1.39
2023-01-11T06:46:29.265Z,1.40
2023-01-11T06:48:41.228Z,1.39
2023-01-11T06:50:56.543Z,1.40
2023-01-11T06:53:09.113Z,1.42
2023-01-11T06:55:22.341Z,1.43
2023-01-11T06:57:34.333Z,1.45
2023-01-11T06:59:46.214Z,1.46
2023-01-11T07:01:59.082Z,1.48
2023-01-11T07:04:10.883Z,1.49
2023-01-11T07:06:22.811Z,1.50
2023-01-11T07:08:34.499Z,1.51
2023-01-11T07:10:46.909Z,1.52
2023-01-11T07:12:58.490Z,1.54
2023-01-11T07:15:11.411Z,1.56
2023-01-11T07:17:23.400Z,1.58
2023-01-11T07:19:35.192Z,1.61
2023-01-11T07:21:46.796Z,1.63
2023-01-11T07:23:58.574Z,1.64
2023-01-11T07:26:10.510Z,1.66
2023-01-11T07:28:22.763Z,1.69
2023-01-11T07:30:51.810Z,1.72
2023-01-11T07:33:10.405Z,1.74
2023-01-11T07:35:21.873Z,1.76
2023-01-11T07:37:34.369Z,1.77
2023-01-11T07:39:46.897Z,1.77
2023-01-11T07:42:17.874Z,1.78
2023-01-11T07:44:29.905Z,1.80
2023-01-11T07:46:42.104Z,1.84
2023-01-11T07:48:54.291Z,1.90
2023-01-11T07:51:10.771Z,1.95
2023-01-11T07:53:26.075Z,2.01
2023-01-11T07:55:39.947Z,2.05
2023-01-11T07:57:52.079Z,2.10
2023-01-11T08:00:04.204Z,2.15
2023-01-11T08:02:24.495Z,2.19
2023-01-11T08:04:36.668Z,2.20
2023-01-11T08:06:48.314Z,2.18
2023-01-11T08:09:00.261Z,2.16
2023-01-11T08:11:31.290Z,2.15
2023-01-11T08:14:02.340Z,2.13
2023-01-11T08:16:14.234Z,2.12
2023-01-11T08:18:26.219Z,2.13
2023-01-11T08:20:38.926Z,2.13
2023-01-11T08:22:52.652Z,2.15
2023-01-11T08:25:04.763Z,2.18
2023-01-11T08:27:16.632Z,2.19
2023-01-11T08:29:28.753Z,2.20
2023-01-11T08:31:43.515Z,2.22
2023-01-11T08:33:55.811Z,2.24
2023-01-11T08:36:10.519Z,2.29
2023-01-11T08:38:22.780Z,2.33
2023-01-11T08:40:36.103Z,2.39
2023-01-11T08:42:47.999Z,2.44
2023-01-11T08:44:59.992Z,2.50
2023-01-11T08:47:12.080Z,2.56
2023-01-11T08:49:23.887Z,2.63
2023-01-11T08:51:35.568Z,2.69
2023-01-11T08:53:47.653Z,2.76
2023-01-11T08:55:59.856Z,2.83
2023-01-11T08:58:12.055Z,2.88
2023-01-11T09:00:24.559Z,2.95
2023-01-11T09:02:36.204Z,3.01
2023-01-11T09:04:49.271Z,3.07
2023-01-11T09:07:02.388Z,3.13
2023-01-11T09:09:13.974Z,3.19
2023-01-11T09:11:44.521Z,3.24
2023-01-11T09:13:56.499Z,3.29
2023-01-11T09:16:08.163Z,3.34
2023-01-11T09:18:20.077Z,3.39
2023-01-11T09:20:31.972Z,3.44
2023-01-11T09:22:49.768Z,3.49
2023-01-11T09:25:04.356Z,3.53
2023-01-11T09:27:16.739Z,3.57
2023-01-11T09:29:30.876Z,3.61
2023-01-11T09:31:42.567Z,3.66
2023-01-11T09:33:55.713Z,3.70
2023-01-11T09:36:08.020Z,3.72
2023-01-11T09:38:20.113Z,3.76
2023-01-11T09:40:52.591Z,3.81
2023-01-11T09:43:08.171Z,3.86
2023-01-11T09:45:27.896Z,3.91
2023-01-11T09:48:03.719Z,3.95
2023-01-11T09:50:28.093Z,4.00
2023-01-11T09:52:43.824Z,4.04
2023-01-11T09:55:00.570Z,4.09
2023-01-11T09:57:31.714Z,4.13
2023-01-11T09:59:54.460Z,4.16
2023-01-11T10:02:26.057Z,4.20
2023-01-11T10:04:50.263Z,4.23
2023-01-11T10:07:25.959Z,4.27
2023-01-11T10:18:33.480Z,4.36
2023-01-11T10:18:58.299Z,4.38
2023-01-11T10:21:44.410Z,4.40
2023-01-11T10:24:03.959Z,4.42
2023-01-11T10:26:32.480Z,4.45
2023-01-11T10:29:07.569Z,4.48
2023-01-11T10:31:33.970Z,4.51
2023-01-11T10:34:06.210Z,4.54
2023-01-11T10:37:15.046Z,4.57
2023-01-11T10:40:10.813Z,4.60
2023-01-11T10:42:28.732Z,4.62
2023-01-11T10:44:56.102Z,4.66
2023-01-11T10:47:19.676Z,4.70
2023-01-11T10:49:35.933Z,4.74
2023-01-11T10:51:49.495Z,4.78
2023-01-11T10:54:18.182Z,4.80
2023-01-11T10:57:01.732Z,4.83
2023-01-11T10:59:41.360Z,4.86
2023-01-11T11:02:09.672Z,4.89
2023-01-11T11:04:40.163Z,4.91
2023-01-11T11:06:58.403Z,4.93
2023-01-11T11:09:32.520Z,4.96
2023-01-11T11:11:53.137Z,4.97
2023-01-11T11:14:23.340Z,4.99
2023-01-11T11:16:51.099Z,5.02
2023-01-11T11:19:03.213Z,5.05
2023-01-11T11:21:21.682Z,5.05
2023-01-11T11:23:35.281Z,5.07
2023-01-11T11:25:51.675Z,5.09
2023-01-11T11:28:15.555Z,5.10
2023-01-11T11:30:35.017Z,5.11
2023-01-11T11:32:56.228Z,5.13
2023-01-11T11:35:34.144Z,5.15
2023-01-11T11:37:46.231Z,5.16
2023-01-11T11:39:58.120Z,5.17
2023-01-11T11:42:16.259Z,5.19
2023-01-11T11:44:28.968Z,5.20
2023-01-11T11:46:40.863Z,5.22
2023-01-11T11:49:18.670Z,5.23
2023-01-11T11:51:31.577Z,5.24
2023-01-11T11:53:51.865Z,5.24
2023-01-11T11:56:23.428Z,5.25
2023-01-11T11:58:42.241Z,5.27
2023-01-11T12:00:54.355Z,5.28
2023-01-11T12:03:33.926Z,5.29
2023-01-11T12:06:05.465Z,5.32
2023-01-11T12:08:18.896Z,5.35
2023-01-11T12:10:32.426Z,5.36
2023-01-11T12:12:54.666Z,5.38
2023-01-11T12:15:15.778Z,5.39
2023-01-11T12:17:27.867Z,5.40
2023-01-11T12:19:45.337Z,5.43
2023-01-11T12:22:30.357Z,5.44
2023-01-11T12:24:42.259Z,5.45
2023-01-11T12:27:10.252Z,5.45
2023-01-11T12:29:48.425Z,5.46
2023-01-11T12:32:18.608Z,5.45
2023-01-11T12:34:56.757Z,5.46
2023-01-11T12:37:33.357Z,5.44
2023-01-11T12:40:21.576Z,5.44
2023-01-11T12:42:42.683Z,5.43
2023-01-11T12:45:09.934Z,5.43
2023-01-11T12:47:25.001Z,5.43
2023-01-11T12:49:51.341Z,5.50
2023-01-11T12:52:27.799Z,5.51
2023-01-11T12:55:15.316Z,5.51
2023-01-11T12:57:32.955Z,5.49
2023-01-11T12:59:53.857Z,5.48
2023-01-11T13:02:44.095Z,5.48
2023-01-11T13:05:33.318Z,5.47
2023-01-11T13:08:21.270Z,5.47
2023-01-11T13:10:52.752Z,5.48
2023-01-11T13:13:28.560Z,5.48
2023-01-11T13:16:22.591Z,5.48
2023-01-11T13:18:45.385Z,5.48
2023-01-11T13:21:07.029Z,5.47
2023-01-11T13:23:33.359Z,5.48
2023-01-11T13:25:49.223Z,5.49
2023-01-11T13:28:11.084Z,5.50
2023-01-11T13:30:26.974Z,5.51
2023-01-11T13:32:43.204Z,5.52
2023-01-11T13:35:19.596Z,5.53
2023-01-11T13:37:44.803Z,5.53
2023-01-11T13:40:10.417Z,5.54
2023-01-11T13:42:28.471Z,5.55
2023-01-11T13:44:46.486Z,5.55
2023-01-11T13:47:06.490Z,5.53
2023-01-11T13:49:49.392Z,5.52
2023-01-11T13:52:12.955Z,5.53
2023-01-11T13:54:49.834Z,5.53
2023-01-11T13:57:07.257Z,5.54
2023-01-11T13:59:29.591Z,5.55
2023-01-11T14:01:47.871Z,5.55
2023-01-11T14:04:07.457Z,5.55
2023-01-11T14:06:45.412Z,5.56
2023-01-11T14:09:32.016Z,5.56
2023-01-11T14:12:22.614Z,5.56
2023-01-11T14:14:54.690Z,5.55
2023-01-11T14:17:18.656Z,5.55
2023-01-11T14:19:41.514Z,5.54
2023-01-11T14:22:09.282Z,5.54
2023-01-11T14:24:22.802Z,5.54
2023-01-11T14:27:00.445Z,5.55
2023-01-11T14:29:25.803Z,5.55
2023-01-11T14:32:03.097Z,5.57
2023-01-11T14:34:39.521Z,5.57
2023-01-11T14:37:17.892Z,5.57
2023-01-11T14:39:48.814Z,5.59
2023-01-11T14:42:34.268Z,5.56
2023-01-11T14:45:11.822Z,5.58
2023-01-11T14:47:40.060Z,5.58
2023-01-11T14:50:19.090Z,5.60
2023-01-11T14:52:39.995Z,5.61
2023-01-11T14:54:55.368Z,5.60
2023-01-11T14:57:38.695Z,5.59
2023-01-11T14:59:50.331Z,5.60
2023-01-11T15:02:05.650Z,5.61
2023-01-11T15:04:22.854Z,5.62
2023-01-11T15:06:52.990Z,5.63
2023-01-11T15:09:54.034Z,5.64
2023-01-11T15:12:21.936Z,5.64
2023-01-11T15:14:34.104Z,5.63
2023-01-11T15:17:10.058Z,5.64
2023-01-11T15:19:35.781Z,5.63
2023-01-11T15:21:50.489Z,5.63
2023-01-11T15:24:02.630Z,5.63
2023-01-11T15:26:17.803Z,5.62
2023-01-11T15:28:36.964Z,5.61
2023-01-11T15:30:53.104Z,5.62
2023-01-11T15:33:19.614Z,5.62
2023-01-11T15:35:33.834Z,5.62
2023-01-11T15:38:05.204Z,5.62
2023-01-11T15:40:20.530Z,5.62
2023-01-11T15:42:48.732Z,5.62
2023-01-11T15:45:38.742Z,5.62
2023-01-11T15:48:01.669Z,5.60
2023-01-11T15:50:13.663Z,5.59
2023-01-11T15:52:51.119Z,5.60
2023-01-11T15:55:25.065Z,5.59
2023-01-11T15:58:05.241Z,5.59
2023-01-11T16:00:51.362Z,5.59
2023-01-11T16:03:49.525Z,5.59
2023-01-11T16:06:12.855Z,5.59
2023-01-11T16:08:35.200Z,5.59
2023-01-11T16:11:22.309Z,5.60
2023-01-11T16:13:56.220Z,5.61
2023-01-11T16:16:29.465Z,5.63
2023-01-11T16:18:47.154Z,5.65
2023-01-11T16:21:12.957Z,5.66
2023-01-11T16:23:24.894Z,5.67
2023-01-11T16:25:41.250Z,5.69
2023-01-11T16:27:56.032Z,5.70
2023-01-11T16:30:17.348Z,5.71
2023-01-11T16:32:34.211Z,5.73
2023-01-11T16:34:50.327Z,5.73
2023-01-11T16:37:02.155Z,5.76
2023-01-11T16:39:19.839Z,5.78
2023-01-11T16:41:45.315Z,5.80
2023-01-11T16:44:02.337Z,5.82
2023-01-11T16:46:46.417Z,5.85
2023-01-11T16:49:11.409Z,5.86
2023-01-11T16:51:24.225Z,5.88
2023-01-11T16:53:39.509Z,5.90
2023-01-11T16:55:56.946Z,5.90
2023-01-11T16:58:26.533Z,5.91
2023-01-11T17:00:39.945Z,5.92
2023-01-11T17:03:01.100Z,5.95
2023-01-11T17:05:20.049Z,5.96
2023-01-11T17:07:33.446Z,5.98
2023-01-11T17:09:45.450Z,6.00
2023-01-11T17:11:57.847Z,6.01
2023-01-11T17:14:35.443Z,6.04
2023-01-11T17:16:50.745Z,6.06
2023-01-11T17:19:09.518Z,6.09
2023-01-11T17:21:24.327Z,6.11
2023-01-11T17:23:39.432Z,6.14
2023-01-11T17:25:57.052Z,6.17
2023-01-11T17:28:18.237Z,6.19
2023-01-11T17:30:30.957Z,6.22
2023-01-11T17:32:46.280Z,6.24
2023-01-11T17:35:03.971Z,6.25
2023-01-11T17:37:18.668Z,6.26
2023-01-11T17:39:34.792Z,6.26
2023-01-11T17:42:07.050Z,6.26
2023-01-11T17:44:42.509Z,6.24
2023-01-11T17:46:54.810Z,6.24
2023-01-11T17:49:21.140Z,6.22
2023-01-11T17:51:34.881Z,6.17
2023-01-11T17:53:50.584Z,6.13
2023-01-11T17:56:07.951Z,6.09
2023-01-11T17:58:26.409Z,6.04
2023-01-11T18:00:39.038Z,6.00
2023-01-11T18:02:51.340Z,5.97
2023-01-11T18:05:04.089Z,5.94
2023-01-11T18:07:19.320Z,5.92
2023-01-11T18:09:36.131Z,5.89
2023-01-11T18:11:49.497Z,5.86
2023-01-11T18:14:05.698Z,5.84
2023-01-11T18:16:22.386Z,5.82
2023-01-11T18:18:54.775Z,5.80
2023-01-11T18:21:27.202Z,5.78
2023-01-11T18:23:38.889Z,5.78
2023-01-11T18:25:50.907Z,5.77
2023-01-11T18:28:11.890Z,5.78
2023-01-11T18:30:33.247Z,5.75
2023-01-11T18:32:45.193Z,5.74
2023-01-11T18:34:58.464Z,5.74
2023-01-11T18:37:11.750Z,5.76
2023-01-11T18:39:23.226Z,5.77
2023-01-11T18:41:54.175Z,5.76
2023-01-11T18:44:06.369Z,5.75
2023-01-11T18:46:18.336Z,5.74
2023-01-11T18:48:30.393Z,5.75
2023-01-11T18:50:45.116Z,5.74
2023-01-11T18:52:57.906Z,5.74
2023-01-11T18:55:17.807Z,5.74
2023-01-11T18:57:29.957Z,5.74
2023-01-11T18:59:42.039Z,5.75
2023-01-11T19:02:11.973Z,5.74
2023-01-11T19:04:28.529Z,5.75
2023-01-11T19:06:40.411Z,5.74
2023-01-11T19:08:52.517Z,5.77
2023-01-11T19:11:04.605Z,5.78
2023-01-11T19:13:19.260Z,5.78
2023-01-11T19:15:30.910Z,5.78
2023-01-11T19:17:43.776Z,5.78
2023-01-11T19:19:55.353Z,5.79
2023-01-11T19:22:08.378Z,5.80
2023-01-11T19:24:20.258Z,5.80
2023-01-11T19:26:32.254Z,5.81
2023-01-11T19:28:44.025Z,5.80
2023-01-11T19:30:55.872Z,5.81
2023-01-11T19:33:09.980Z,5.82
2023-01-11T19:35:23.769Z,5.83
2023-01-11T19:37:37.554Z,5.85
2023-01-11T19:39:49.344Z,5.86
2023-01-11T19:42:02.059Z,5.86
2023-01-11T19:44:13.945Z,5.87
2023-01-11T19:46:31.709Z,5.89
2023-01-11T19:48:44.590Z,5.89
2023-01-11T19:51:08.718Z,5.90
2023-01-11T19:53:20.523Z,5.92
2023-01-11T19:55:32.557Z,5.92
2023-01-11T19:57:45.171Z,5.93
2023-01-11T19:59:57.171Z,5.93
2023-01-11T20:02:13.759Z,5.95
2023-01-11T20:04:27.088Z,5.96
2023-01-11T20:06:50.247Z,5.96
2023-01-11T20:09:02.459Z,5.96
2023-01-11T20:11:15.964Z,5.97
2023-01-11T20:13:27.878Z,5.97
2023-01-11T20:15:39.812Z,5.97
2023-01-11T20:17:51.858Z,5.98
2023-01-11T20:20:05.733Z,5.99
2023-01-11T20:22:54.527Z,6.00
2023-01-11T20:25:14.614Z,6.01
2023-01-11T20:27:27.658Z,6.02
2023-01-11T20:29:39.725Z,6.03
2023-01-11T20:31:52.057Z,6.03
2023-01-11T20:34:11.944Z,6.04
2023-01-11T20:36:24.851Z,6.05
2023-01-11T20:38:36.753Z,6.07
2023-01-11T20:40:49.049Z,6.09
2023-01-11T20:43:00.857Z,6.10
2023-01-11T20:45:12.837Z,6.11
2023-01-11T20:47:25.361Z,6.14
2023-01-11T20:49:37.282Z,6.15
2023-01-11T20:51:49.127Z,6.16
2023-01-11T20:54:01.322Z,6.17
2023-01-11T20:56:14.136Z,6.18
2023-01-11T20:58:25.721Z,6.20
2023-01-11T21:00:37.715Z,6.21
2023-01-11T21:02:50.322Z,6.23
2023-01-11T21:05:05.445Z,6.25
2023-01-11T21:07:48.432Z,6.25
2023-01-11T21:10:05.235Z,6.25
2023-01-11T21:12:24.197Z,6.26
2023-01-11T21:14:40.922Z,6.27
2023-01-11T21:16:56.909Z,6.28
2023-01-11T21:19:13.491Z,6.30
2023-01-11T21:21:28.228Z,6.31
2023-01-11T21:23:40.535Z,6.32
2023-01-11T21:25:52.499Z,6.33
2023-01-11T21:28:04.431Z,6.35
2023-01-11T21:30:18.310Z,6.37
2023-01-11T21:32:29.993Z,6.38
2023-01-11T21:34:42.046Z,6.39
2023-01-11T21:36:54.120Z,6.42
2023-01-11T21:39:06.721Z,6.43
2023-01-11T21:41:44.229Z,6.45
2023-01-11T21:43:56.064Z,6.45
2023-01-11T21:46:08.438Z,6.47
2023-01-11T21:48:20.127Z,6.48
2023-01-11T21:50:31.816Z,6.50
2023-01-11T21:52:43.500Z,6.51
2023-01-11T21:54:55.392Z,6.53
2023-01-11T21:57:08.351Z,6.54
2023-01-11T21:59:21.032Z,6.54
2023-01-11T22:01:33.330Z,6.55
2023-01-11T22:03:50.380Z,6.56
2023-01-11T22:06:03.464Z,6.57
2023-01-11T22:08:15.758Z,6.58
2023-01-11T22:10:27.955Z,6.58
2023-01-11T22:12:40.052Z,6.59
2023-01-11T22:14:52.150Z,6.59
2023-01-11T22:17:04.623Z,6.60
2023-01-11T22:19:17.268Z,6.62
2023-01-11T22:21:29.365Z,6.62
2023-01-11T22:23:42.297Z,6.64
2023-01-11T22:25:54.007Z,6.65
2023-01-11T22:28:06.268Z,6.66
2023-01-11T22:30:18.469Z,6.67
2023-01-11T22:32:31.604Z,6.68
2023-01-11T22:34:42.983Z,6.68
2023-01-11T22:36:55.172Z,6.68
2023-01-11T22:39:07.267Z,6.68
2023-01-11T22:41:19.987Z,6.68
2023-01-11T22:43:32.176Z,6.69
2023-01-11T22:45:44.215Z,6.70
2023-01-11T22:47:59.242Z,6.70
2023-01-11T22:50:11.741Z,6.71
2023-01-11T22:52:23.642Z,6.71
2023-01-11T22:54:35.529Z,6.71
2023-01-11T22:56:47.951Z,6.72
2023-01-11T22:59:00.747Z,6.73
2023-01-11T23:01:17.148Z,6.73
2023-01-11T23:03:28.991Z,6.74
2023-01-11T23:05:45.755Z,6.74
2023-01-11T23:07:58.045Z,6.75
2023-01-11T23:10:10.245Z,6.76
2023-01-11T23:12:41.192Z,6.76
2023-01-11T23:14:53.805Z,6.78
2023-01-11T23:17:07.188Z,6.79
2023-01-11T23:19:20.650Z,6.79
2023-01-11T23:21:33.052Z,6.79
2023-01-11T23:23:44.948Z,6.81
2023-01-11T23:25:56.940Z,6.82
2023-01-11T23:28:08.524Z,6.82
2023-01-11T23:30:20.826Z,6.84
2023-01-11T23:32:34.155Z,6.84
2023-01-11T23:34:46.052Z,6.85
2023-01-11T23:36:58.143Z,6.85
2023-01-11T23:39:14.024Z,6.86
2023-01-11T23:41:45.391Z,6.87
2023-01-11T23:43:57.675Z,6.87
2023-01-11T23:46:28.407Z,6.88
2023-01-11T23:48:40.209Z,6.88
2023-01-11T23:50:51.887Z,6.89
2023-01-11T23:53:03.582Z,6.90
2023-01-11T23:55:15.163Z,6.90
2023-01-11T23:57:27.060Z,6.91
2023-01-11T23:59:39.460Z,6.92
